sensor_id;sensor_type;location;lat;lon;timestamp;pressure;altitude;pressure_sealevel;temperature;humidity
39739;BME280;25422;48.286;8.484;2022-12-07T00:01:09;94046.97;;;-0.42;100.00
39739;BME280;25422;48.286;8.484;2022-12-07T00:03:36;94047.38;;;-0.36;100.00
39739;BME280;25422;48.286;8.484;2022-12-07T00:06:03;94049.00;;;-0.35;100.00
39739;BME280;25422;48.286;8.484;2022-12-07T00:08:30;94039.47;;;-0.32;100.00
39739;BME280;25422;48.286;8.484;2022-12-07T00:11:00;94035.47;;;-0.37;100.00
39739;BME280;25422;48.286;8.484;2022-12-07T00:13:26;94036.38;;;-0.38;100.00
39739;BME280;25422;48.286;8.484;2022-12-07T00:15:52;94031.03;;;-0.35;100.00
39739;BME280;25422;48.286;8.484;2022-12-07T00:18:17;94028.34;;;-0.33;100.00
39739;BME280;25422;48.286;8.484;2022-12-07T00:20:42;94034.84;;;-0.40;100.00
39739;BME280;25422;48.286;8.484;2022-12-07T00:23:08;94032.50;;;-0.43;100.00
39739;BME280;25422;48.286;8.484;2022-12-07T00:25:33;94026.63;;;-0.45;100.00
39739;BME280;25422;48.286;8.484;2022-12-07T00:27:58;94024.06;;;-0.45;100.00
39739;BME280;25422;48.286;8.484;2022-12-07T00:30:24;94022.28;;;-0.45;100.00
39739;BME280;25422;48.286;8.484;2022-12-07T00:32:50;94023.03;;;-0.43;100.00
39739;BME280;25422;48.286;8.484;2022-12-07T00:35:15;94023.94;;;-0.44;100.00
39739;BME280;25422;48.286;8.484;2022-12-07T00:37:41;94013.66;;;-0.44;100.00
39739;BME280;25422;48.286;8.484;2022-12-07T00:40:06;94016.50;;;-0.36;100.00
39739;BME280;25422;48.286;8.484;2022-12-07T00:42:33;94013.03;;;-0.35;100.00
39739;BME280;25422;48.286;8.484;2022-12-07T00:44:58;94014.97;;;-0.38;100.00
39739;BME280;25422;48.286;8.484;2022-12-07T00:47:23;94012.09;;;-0.33;100.00
39739;BME280;25422;48.286;8.484;2022-12-07T00:49:49;94011.50;;;-0.37;100.00
39739;BME280;25422;48.286;8.484;2022-12-07T00:52:14;94012.41;;;-0.38;100.00
39739;BME280;25422;48.286;8.484;2022-12-07T00:54:40;94014.97;;;-0.38;100.00
39739;BME280;25422;48.286;8.484;2022-12-07T00:57:05;94014.16;;;-0.39;100.00
39739;BME280;25422;48.286;8.484;2022-12-07T00:59:31;94012.31;;;-0.37;100.00
39739;BME280;25422;48.286;8.484;2022-12-07T01:01:56;94004.09;;;-0.42;100.00
39739;BME280;25422;48.286;8.484;2022-12-07T01:04:21;94009.25;;;-0.42;100.00
39739;BME280;25422;48.286;8.484;2022-12-07T01:06:47;94009.56;;;-0.46;100.00
39739;BME280;25422;48.286;8.484;2022-12-07T01:09:12;94013.78;;;-0.45;100.00
39739;BME280;25422;48.286;8.484;2022-12-07T01:11:37;94012.97;;;-0.46;100.00
39739;BME280;25422;48.286;8.484;2022-12-07T01:14:03;94014.00;;;-0.48;100.00
39739;BME280;25422;48.286;8.484;2022-12-07T01:16:30;94015.66;;;-0.47;100.00
39739;BME280;25422;48.286;8.484;2022-12-07T01:18:57;94010.81;;;-0.52;100.00
39739;BME280;25422;48.286;8.484;2022-12-07T01:21:31;94013.50;;;-0.54;100.00
39739;BME280;25422;48.286;8.484;2022-12-07T01:24:01;94013.38;;;-0.52;100.00
39739;BME280;25422;48.286;8.484;2022-12-07T01:26:28;94016.69;;;-0.50;100.00
39739;BME280;25422;48.286;8.484;2022-12-07T01:28:54;94015.72;;;-0.49;100.00
39739;BME280;25422;48.286;8.484;2022-12-07T01:31:22;94020.78;;;-0.47;100.00
39739;BME280;25422;48.286;8.484;2022-12-07T01:33:50;94018.28;;;-0.49;100.00
39739;BME280;25422;48.286;8.484;2022-12-07T01:36:24;94023.53;;;-0.51;100.00
39739;BME280;25422;48.286;8.484;2022-12-07T01:38:55;94024.69;;;-0.55;100.00
39739;BME280;25422;48.286;8.484;2022-12-07T01:41:22;94015.44;;;-0.57;100.00
39739;BME280;25422;48.286;8.484;2022-12-07T01:46:32;94024.56;;;-0.53;100.00
39739;BME280;25422;48.286;8.484;2022-12-07T01:48:58;94030.84;;;-0.57;100.00
39739;BME280;25422;48.286;8.484;2022-12-07T01:51:25;94027.38;;;-0.56;100.00
39739;BME280;25422;48.286;8.484;2022-12-07T01:53:52;94029.94;;;-0.56;100.00
39739;BME280;25422;48.286;8.484;2022-12-07T01:56:19;94031.81;;;-0.58;100.00
39739;BME280;25422;48.286;8.484;2022-12-07T01:58:46;94023.38;;;-0.60;100.00
39739;BME280;25422;48.286;8.484;2022-12-07T02:01:13;94023.69;;;-0.65;100.00
39739;BME280;25422;48.286;8.484;2022-12-07T02:03:43;94020.28;;;-0.65;100.00
39739;BME280;25422;48.286;8.484;2022-12-07T02:06:12;94024.41;;;-0.63;100.00
39739;BME280;25422;48.286;8.484;2022-12-07T02:08:38;94023.59;;;-0.63;100.00
39739;BME280;25422;48.286;8.484;2022-12-07T02:11:05;94025.66;;;-0.69;100.00
39739;BME280;25422;48.286;8.484;2022-12-07T02:13:34;94024.31;;;-0.74;100.00
39739;BME280;25422;48.286;8.484;2022-12-07T02:19:00;94030.72;;;-0.80;100.00
39739;BME280;25422;48.286;8.484;2022-12-07T02:32:25;94028.03;;;-0.78;100.00
39739;BME280;25422;48.286;8.484;2022-12-07T02:35:02;94029.56;;;-0.76;100.00
39739;BME280;25422;48.286;8.484;2022-12-07T02:37:41;94024.31;;;-0.74;100.00
39739;BME280;25422;48.286;8.484;2022-12-07T02:40:21;94029.56;;;-0.76;100.00
39739;BME280;25422;48.286;8.484;2022-12-07T02:42:57;94029.56;;;-0.76;100.00
39739;BME280;25422;48.286;8.484;2022-12-07T02:45:25;94029.25;;;-0.71;100.00
39739;BME280;25422;48.286;8.484;2022-12-07T02:47:56;94027.00;;;-0.76;100.00
39739;BME280;25422;48.286;8.484;2022-12-07T02:50:24;94028.53;;;-0.73;100.00
39739;BME280;25422;48.286;8.484;2022-12-07T02:52:49;94023.28;;;-0.72;100.00
39739;BME280;25422;48.286;8.484;2022-12-07T02:55:19;94026.78;;;-0.73;100.00
39739;BME280;25422;48.286;8.484;2022-12-07T03:00:20;94024.31;;;-0.74;100.00
39739;BME280;25422;48.286;8.484;2022-12-07T03:05:44;94021.47;;;-0.82;100.00
39739;BME280;25422;48.286;8.484;2022-12-07T03:10:58;94019.19;;;-0.87;100.00
39739;BME280;25422;48.286;8.484;2022-12-07T03:13:34;94016.50;;;-0.86;100.00
39739;BME280;25422;48.286;8.484;2022-12-07T03:16:14;94019.19;;;-0.87;100.00
39739;BME280;25422;48.286;8.484;2022-12-07T03:19:14;94017.88;;;-0.93;100.00
39739;BME280;25422;48.286;8.484;2022-12-07T03:21:41;94011.19;;;-0.95;100.00
39739;BME280;25422;48.286;8.484;2022-12-07T03:24:18;94007.91;;;-0.97;100.00
39739;BME280;25422;48.286;8.484;2022-12-07T03:26:49;94003.59;;;-0.97;100.00
39739;BME280;25422;48.286;8.484;2022-12-07T03:29:22;94012.09;;;-0.96;100.00
39739;BME280;25422;48.286;8.484;2022-12-07T03:31:55;94006.03;;;-0.95;100.00
39739;BME280;25422;48.286;8.484;2022-12-07T03:34:45;94006.97;;;-0.96;100.00
39739;BME280;25422;48.286;8.484;2022-12-07T03:37:26;94005.22;;;-0.96;100.00
39739;BME280;25422;48.286;8.484;2022-12-07T03:40:03;94007.06;;;-0.98;100.00
39739;BME280;25422;48.286;8.484;2022-12-07T03:42:32;94006.25;;;-0.98;100.00
39739;BME280;25422;48.286;8.484;2022-12-07T03:44:58;94004.41;;;-0.96;100.00
39739;BME280;25422;48.286;8.484;2022-12-07T03:47:41;94004.41;;;-0.96;100.00
39739;BME280;25422;48.286;8.484;2022-12-07T03:52:56;94002.03;;;-0.99;100.00
39739;BME280;25422;48.286;8.484;2022-12-07T03:55:33;94002.97;;;-1.00;100.00
39739;BME280;25422;48.286;8.484;2022-12-07T03:58:03;94008.84;;;-0.98;100.00
39739;BME280;25422;48.286;8.484;2022-12-07T04:00:31;94000.31;;;-0.99;100.00
39739;BME280;25422;48.286;8.484;2022-12-07T04:02:56;94013.97;;;-0.98;100.00
39739;BME280;25422;48.286;8.484;2022-12-07T04:05:22;94006.47;;;-1.02;100.00
39739;BME280;25422;48.286;8.484;2022-12-07T04:07:48;94006.47;;;-1.02;100.00
39739;BME280;25422;48.286;8.484;2022-12-07T04:10:13;94008.09;;;-1.00;100.00
39739;BME280;25422;48.286;8.484;2022-12-07T04:12:39;94007.50;;;-1.04;100.00
39739;BME280;25422;48.286;8.484;2022-12-07T04:15:05;94008.31;;;-1.04;100.00
39739;BME280;25422;48.286;8.484;2022-12-07T04:17:30;94015.31;;;-1.06;100.00
39739;BME280;25422;48.286;8.484;2022-12-07T04:19:56;94005.97;;;-1.07;100.00
39739;BME280;25422;48.286;8.484;2022-12-07T04:22:21;94006.88;;;-1.08;100.00
39739;BME280;25422;48.286;8.484;2022-12-07T04:24:47;94013.78;;;-1.08;100.00
39739;BME280;25422;48.286;8.484;2022-12-07T04:27:12;94002.06;;;-1.12;100.00
39739;BME280;25422;48.286;8.484;2022-12-07T04:29:38;94000.41;;;-1.13;100.00
39739;BME280;25422;48.286;8.484;2022-12-07T04:32:03;93997.97;;;-1.15;100.00
39739;BME280;25422;48.286;8.484;2022-12-07T04:34:28;94003.09;;;-1.15;100.00
39739;BME280;25422;48.286;8.484;2022-12-07T04:36:54;94003.09;;;-1.15;100.00
39739;BME280;25422;48.286;8.484;2022-12-07T04:39:26;94001.34;;;-1.14;100.00
39739;BME280;25422;48.286;8.484;2022-12-07T04:41:52;94004.75;;;-1.14;100.00
39739;BME280;25422;48.286;8.484;2022-12-07T04:44:18;94001.22;;;-1.13;100.00
39739;BME280;25422;48.286;8.484;2022-12-07T04:46:44;93992.72;;;-1.13;100.00
39739;BME280;25422;48.286;8.484;2022-12-07T04:49:11;93997.03;;;-1.14;100.00
39739;BME280;25422;48.286;8.484;2022-12-07T04:51:36;93999.69;;;-1.15;100.00
39739;BME280;25422;48.286;8.484;2022-12-07T04:54:02;93995.38;;;-1.15;100.00
39739;BME280;25422;48.286;8.484;2022-12-07T04:56:27;93991.28;;;-1.17;100.00
39739;BME280;25422;48.286;8.484;2022-12-07T04:58:54;93994.88;;;-1.20;100.00
39739;BME280;25422;48.286;8.484;2022-12-07T05:01:21;94000.91;;;-1.21;100.00
39739;BME280;25422;48.286;8.484;2022-12-07T05:03:47;93998.47;;;-1.23;100.00
39739;BME280;25422;48.286;8.484;2022-12-07T05:06:13;94000.41;;;-1.26;100.00
39739;BME280;25422;48.286;8.484;2022-12-07T05:08:39;94006.47;;;-1.27;100.00
39739;BME280;25422;48.286;8.484;2022-12-07T05:11:05;93997.25;;;-1.30;100.00
39739;BME280;25422;48.286;8.484;2022-12-07T05:13:32;94006.66;;;-1.30;100.00
39739;BME280;25422;48.286;8.484;2022-12-07T05:15:57;94003.41;;;-1.32;100.00
39739;BME280;25422;48.286;8.484;2022-12-07T05:18:23;94001.84;;;-1.35;100.00
39739;BME280;25422;48.286;8.484;2022-12-07T05:20:49;94000.31;;;-1.38;100.00
39739;BME280;25422;48.286;8.484;2022-12-07T05:23:14;94008.22;;;-1.41;100.00
39739;BME280;25422;48.286;8.484;2022-12-07T05:25:40;94000.72;;;-1.44;100.00
39739;BME280;25422;48.286;8.484;2022-12-07T05:28:06;94000.63;;;-1.42;100.00
39739;BME280;25422;48.286;8.484;2022-12-07T05:30:32;94005.84;;;-1.44;100.00
39739;BME280;25422;48.286;8.484;2022-12-07T05:32:57;93998.34;;;-1.47;100.00
39739;BME280;25422;48.286;8.484;2022-12-07T05:35:23;93993.41;;;-1.50;100.00
39739;BME280;25422;48.286;8.484;2022-12-07T05:37:49;93988.50;;;-1.53;100.00
39739;BME280;25422;48.286;8.484;2022-12-07T05:40:15;93987.34;;;-1.62;100.00
39739;BME280;25422;48.286;8.484;2022-12-07T05:42:41;93996.47;;;-1.71;100.00
39739;BME280;25422;48.286;8.484;2022-12-07T05:45:08;93995.94;;;-1.76;100.00
39739;BME280;25422;48.286;8.484;2022-12-07T05:47:34;93987.84;;;-1.82;100.00
39739;BME280;25422;48.286;8.484;2022-12-07T05:50:00;93995.09;;;-1.89;100.00
39739;BME280;25422;48.286;8.484;2022-12-07T05:52:25;94001.44;;;-1.95;100.00
39739;BME280;25422;48.286;8.484;2022-12-07T05:54:51;94000.00;;;-1.99;100.00
39739;BME280;25422;48.286;8.484;2022-12-07T05:57:17;93996.81;;;-2.03;100.00
39739;BME280;25422;48.286;8.484;2022-12-07T05:59:42;93997.91;;;-2.07;100.00
39739;BME280;25422;48.286;8.484;2022-12-07T06:02:10;94007.03;;;-2.15;100.00
39739;BME280;25422;48.286;8.484;2022-12-07T06:04:41;94001.47;;;-2.22;100.00
39739;BME280;25422;48.286;8.484;2022-12-07T06:07:07;93997.63;;;-2.29;100.00
39739;BME280;25422;48.286;8.484;2022-12-07T06:09:33;94005.97;;;-2.40;100.00
39739;BME280;25422;48.286;8.484;2022-12-07T06:11:59;93994.22;;;-2.43;100.00
39739;BME280;25422;48.286;8.484;2022-12-07T06:14:44;93994.91;;;-2.41;100.00
39739;BME280;25422;48.286;8.484;2022-12-07T06:17:10;94004.72;;;-2.47;100.00
39739;BME280;25422;48.286;8.484;2022-12-07T06:19:37;93998.44;;;-2.56;100.00
39739;BME280;25422;48.286;8.484;2022-12-07T06:22:03;93995.88;;;-2.56;100.00
39739;BME280;25422;48.286;8.484;2022-12-07T06:24:30;93996.25;;;-2.62;100.00
39739;BME280;25422;48.286;8.484;2022-12-07T06:26:56;93998.28;;;-2.67;100.00
39739;BME280;25422;48.286;8.484;2022-12-07T06:29:21;93999.56;;;-2.60;100.00
39739;BME280;25422;48.286;8.484;2022-12-07T06:31:47;93995.72;;;-2.67;100.00
39739;BME280;25422;48.286;8.484;2022-12-07T06:34:16;93995.19;;;-2.73;100.00
39739;BME280;25422;48.286;8.484;2022-12-07T06:36:42;93987.50;;;-2.73;100.00
39739;BME280;25422;48.286;8.484;2022-12-07T06:39:08;93992.69;;;-2.74;100.00
39739;BME280;25422;48.286;8.484;2022-12-07T06:41:38;93996.19;;;-2.75;100.00
39739;BME280;25422;48.286;8.484;2022-12-07T06:44:05;93998.31;;;-2.82;100.00
39739;BME280;25422;48.286;8.484;2022-12-07T06:46:31;93992.53;;;-2.85;100.00
39739;BME280;25422;48.286;8.484;2022-12-07T06:48:56;93996.31;;;-2.91;100.00
39739;BME280;25422;48.286;8.484;2022-12-07T06:51:22;94002.31;;;-2.92;100.00
39739;BME280;25422;48.286;8.484;2022-12-07T06:53:47;94002.97;;;-2.89;100.00
39739;BME280;25422;48.286;8.484;2022-12-07T06:56:13;94007.00;;;-2.84;100.00
39739;BME280;25422;48.286;8.484;2022-12-07T06:58:38;94002.06;;;-2.88;100.00
39739;BME280;25422;48.286;8.484;2022-12-07T07:01:09;94008.34;;;-2.93;100.00
39739;BME280;25422;48.286;8.484;2022-12-07T07:03:35;94012.66;;;-2.94;100.00
39739;BME280;25422;48.286;8.484;2022-12-07T07:06:00;94020.16;;;-2.91;100.00
39739;BME280;25422;48.286;8.484;2022-12-07T07:08:26;94014.13;;;-2.90;100.00
39739;BME280;25422;48.286;8.484;2022-12-07T07:10:51;94024.16;;;-2.86;100.00
39739;BME280;25422;48.286;8.484;2022-12-07T07:13:17;94025.63;;;-2.82;100.00
39739;BME280;25422;48.286;8.484;2022-12-07T07:15:42;94027.09;;;-2.78;100.00
39739;BME280;25422;48.286;8.484;2022-12-07T07:18:08;94037.69;;;-2.70;100.00
39739;BME280;25422;48.286;8.484;2022-12-07T07:20:33;94036.13;;;-2.58;100.00
39739;BME280;25422;48.286;8.484;2022-12-07T07:22:59;94034.47;;;-2.45;100.00
39739;BME280;25422;48.286;8.484;2022-12-07T07:25:24;94042.50;;;-2.37;100.00
39739;BME280;25422;48.286;8.484;2022-12-07T07:27:49;94036.81;;;-2.27;100.00
39739;BME280;25422;48.286;8.484;2022-12-07T07:30:15;94031.47;;;-2.24;100.00
39739;BME280;25422;48.286;8.484;2022-12-07T07:32:41;94039.91;;;-2.22;100.00
39739;BME280;25422;48.286;8.484;2022-12-07T07:35:06;94035.59;;;-2.22;100.00
39739;BME280;25422;48.286;8.484;2022-12-07T07:37:31;94037.78;;;-2.15;100.00
39739;BME280;25422;48.286;8.484;2022-12-07T07:39:57;94035.50;;;-2.20;100.00
39739;BME280;25422;48.286;8.484;2022-12-07T07:42:22;94047.75;;;-2.11;100.00
39739;BME280;25422;48.286;8.484;2022-12-07T07:44:48;94032.69;;;-2.03;100.00
39739;BME280;25422;48.286;8.484;2022-12-07T07:47:13;94041.34;;;-1.91;100.00
39739;BME280;25422;48.286;8.484;2022-12-07T07:49:38;94047.63;;;-1.82;100.00
39739;BME280;25422;48.286;8.484;2022-12-07T07:52:05;94044.47;;;-1.73;100.00
39739;BME280;25422;48.286;8.484;2022-12-07T07:54:31;94041.72;;;-1.70;100.00
39739;BME280;25422;48.286;8.484;2022-12-07T07:56:57;94041.31;;;-1.63;100.00
39739;BME280;25422;48.286;8.484;2022-12-07T07:59:22;94044.31;;;-1.70;100.00
39739;BME280;25422;48.286;8.484;2022-12-07T08:01:48;94043.56;;;-1.59;100.00
39739;BME280;25422;48.286;8.484;2022-12-07T08:04:13;94044.44;;;-1.45;100.00
39739;BME280;25422;48.286;8.484;2022-12-07T08:06:39;94049.19;;;-1.26;100.00
39739;BME280;25422;48.286;8.484;2022-12-07T08:09:04;94039.72;;;-1.39;100.00
39739;BME280;25422;48.286;8.484;2022-12-07T08:11:31;94042.81;;;-1.46;100.00
39739;BME280;25422;48.286;8.484;2022-12-07T08:13:57;94044.84;;;-1.51;100.00
39739;BME280;25422;48.286;8.484;2022-12-07T08:16:22;94046.19;;;-1.46;100.00
39739;BME280;25422;48.286;8.484;2022-12-07T08:18:48;94047.84;;;-1.45;100.00
39739;BME280;25422;48.286;8.484;2022-12-07T08:21:14;94041.69;;;-1.42;100.00
39739;BME280;25422;48.286;8.484;2022-12-07T08:23:40;94043.03;;;-1.37;100.00
39739;BME280;25422;48.286;8.484;2022-12-07T08:26:09;94046.72;;;-1.28;100.00
39739;BME280;25422;48.286;8.484;2022-12-07T08:28:35;94045.41;;;-1.21;100.00
39739;BME280;25422;48.286;8.484;2022-12-07T08:31:02;94056.28;;;-1.17;100.00
39739;BME280;25422;48.286;8.484;2022-12-07T08:33:28;94052.88;;;-1.05;100.00
39739;BME280;25422;48.286;8.484;2022-12-07T08:35:53;94055.44;;;-1.05;100.00
39739;BME280;25422;48.286;8.484;2022-12-07T08:38:19;94053.19;;;-0.96;100.00
39739;BME280;25422;48.286;8.484;2022-12-07T08:40:45;94056.88;;;-0.75;100.00
39739;BME280;25422;48.286;8.484;2022-12-07T08:43:10;94051.25;;;-0.80;100.00
39739;BME280;25422;48.286;8.484;2022-12-07T08:45:35;94051.16;;;-0.78;100.00
39739;BME280;25422;48.286;8.484;2022-12-07T08:48:06;94051.66;;;-0.86;100.00
39739;BME280;25422;48.286;8.484;2022-12-07T08:50:34;94051.56;;;-1.10;100.00
39739;BME280;25422;48.286;8.484;2022-12-07T08:53:02;94050.53;;;-1.08;100.00
39739;BME280;25422;48.286;8.484;2022-12-07T08:55:30;94044.25;;;-1.04;100.00
39739;BME280;25422;48.286;8.484;2022-12-07T08:58:00;94049.59;;;-0.81;100.00
39739;BME280;25422;48.286;8.484;2022-12-07T09:00:27;94042.31;;;-0.87;100.00
39739;BME280;25422;48.286;8.484;2022-12-07T09:02:53;94048.69;;;-0.93;100.00
39739;BME280;25422;48.286;8.484;2022-12-07T09:05:19;94052.28;;;-0.82;100.00
39739;BME280;25422;48.286;8.484;2022-12-07T09:07:47;94054.97;;;-0.84;100.00
39739;BME280;25422;48.286;8.484;2022-12-07T09:10:14;94059.97;;;-0.70;100.00
39739;BME280;25422;48.286;8.484;2022-12-07T09:12:40;94055.84;;;-0.59;100.00
39739;BME280;25422;48.286;8.484;2022-12-07T09:15:05;94059.00;;;-0.43;100.00
39739;BME280;25422;48.286;8.484;2022-12-07T09:17:32;94057.06;;;-0.39;100.00
39739;BME280;25422;48.286;8.484;2022-12-07T09:19:58;94059.53;;;-0.38;100.00
39739;BME280;25422;48.286;8.484;2022-12-07T09:22:29;94051.19;;;-0.41;100.00
39739;BME280;25422;48.286;8.484;2022-12-07T09:24:58;94055.72;;;-0.45;100.00
39739;BME280;25422;48.286;8.484;2022-12-07T09:27:24;94057.66;;;-0.36;100.00
39739;BME280;25422;48.286;8.484;2022-12-07T09:29:50;94065.06;;;-0.31;100.00
39739;BME280;25422;48.286;8.484;2022-12-07T09:32:15;94061.84;;;-0.22;100.00
39739;BME280;25422;48.286;8.484;2022-12-07T09:34:40;94063.44;;;-0.08;100.00
39739;BME280;25422;48.286;8.484;2022-12-07T09:37:06;94059.94;;;-0.07;100.00
39739;BME280;25422;48.286;8.484;2022-12-07T09:39:32;94060.22;;;0.02;100.00
39739;BME280;25422;48.286;8.484;2022-12-07T09:41:58;94054.91;;;0.16;100.00
39739;BME280;25422;48.286;8.484;2022-12-07T09:44:27;94051.38;;;0.30;100.00
39739;BME280;25422;48.286;8.484;2022-12-07T09:46:53;94047.84;;;0.31;100.00
39739;BME280;25422;48.286;8.484;2022-12-07T09:49:21;94045.84;;;0.23;100.00
39739;BME280;25422;48.286;8.484;2022-12-07T09:51:48;94045.44;;;0.41;100.00
39739;BME280;25422;48.286;8.484;2022-12-07T09:54:24;94048.44;;;0.59;100.00
39739;BME280;25422;48.286;8.484;2022-12-07T09:56:49;94040.75;;;0.46;100.00
39739;BME280;25422;48.286;8.484;2022-12-07T09:59:17;94036.56;;;0.45;100.00
39739;BME280;25422;48.286;8.484;2022-12-07T10:01:44;94035.19;;;0.28;100.00
39739;BME280;25422;48.286;8.484;2022-12-07T10:04:17;94034.16;;;0.30;100.00
39739;BME280;25422;48.286;8.484;2022-12-07T10:06:43;94032.34;;;0.44;100.00
39739;BME280;25422;48.286;8.484;2022-12-07T10:09:15;94026.59;;;0.40;100.00
39739;BME280;25422;48.286;8.484;2022-12-07T10:12:10;94020.53;;;0.53;100.00
39739;BME280;25422;48.286;8.484;2022-12-07T10:14:40;94017.97;;;0.53;100.00
39739;BME280;25422;48.286;8.484;2022-12-07T10:17:41;94010.47;;;0.49;100.00
39739;BME280;25422;48.286;8.484;2022-12-07T10:20:24;94010.88;;;0.67;100.00
39739;BME280;25422;48.286;8.484;2022-12-07T10:23:02;94002.38;;;1.12;100.00
39739;BME280;25422;48.286;8.484;2022-12-07T10:25:34;94009.41;;;1.10;100.00
39739;BME280;25422;48.286;8.484;2022-12-07T10:28:15;94005.78;;;0.90;100.00
39739;BME280;25422;48.286;8.484;2022-12-07T10:31:02;93995.94;;;0.95;100.00
39739;BME280;25422;48.286;8.484;2022-12-07T10:35:55;93992.91;;;1.47;100.00
39739;BME280;25422;48.286;8.484;2022-12-07T10:38:20;93992.75;;;1.71;100.00
39739;BME280;25422;48.286;8.484;2022-12-07T10:40:46;93984.38;;;1.79;100.00
39739;BME280;25422;48.286;8.484;2022-12-07T10:48:27;93981.41;;;1.28;100.00
39739;BME280;25422;48.286;8.484;2022-12-07T10:51:27;93984.09;;;1.38;100.00
39739;BME280;25422;48.286;8.484;2022-12-07T10:54:10;93980.59;;;1.28;100.00
39739;BME280;25422;48.286;8.484;2022-12-07T10:57:02;93974.63;;;1.16;100.00
39739;BME280;25422;48.286;8.484;2022-12-07T10:59:41;93970.75;;;1.22;100.00
39739;BME280;25422;48.286;8.484;2022-12-07T11:02:25;93974.84;;;1.24;100.00
39739;BME280;25422;48.286;8.484;2022-12-07T11:06:14;93974.63;;;1.27;100.00
39739;BME280;25422;48.286;8.484;2022-12-07T11:11:16;93961.63;;;1.40;100.00
39739;BME280;25422;48.286;8.484;2022-12-07T11:14:40;93964.91;;;1.31;100.00
39739;BME280;25422;48.286;8.484;2022-12-07T11:22:05;93963.75;;;1.24;100.00
39739;BME280;25422;48.286;8.484;2022-12-07T11:24:50;93963.16;;;1.09;100.00
39739;BME280;25422;48.286;8.484;2022-12-07T11:27:46;93954.13;;;1.26;100.00
39739;BME280;25422;48.286;8.484;2022-12-07T11:30:19;93956.34;;;1.42;100.00
39739;BME280;25422;48.286;8.484;2022-12-07T11:37:56;93956.59;;;0.93;100.00
39739;BME280;25422;48.286;8.484;2022-12-07T11:40:27;93958.00;;;0.97;100.00
39739;BME280;25422;48.286;8.484;2022-12-07T11:46:35;93950.50;;;0.94;100.00
39739;BME280;25422;48.286;8.484;2022-12-07T11:49:18;93940.88;;;1.19;100.00
39739;BME280;25422;48.286;8.484;2022-12-07T11:51:47;93936.94;;;1.04;100.00
39739;BME280;25422;48.286;8.484;2022-12-07T11:54:19;93932.09;;;0.99;100.00
39739;BME280;25422;48.286;8.484;2022-12-07T11:56:49;93927.31;;;1.17;100.00
39739;BME280;25422;48.286;8.484;2022-12-07T11:59:17;93933.97;;;1.08;100.00
39739;BME280;25422;48.286;8.484;2022-12-07T12:01:52;93940.31;;;1.04;100.00
39739;BME280;25422;48.286;8.484;2022-12-07T12:07:02;93933.88;;;0.98;100.00
39739;BME280;25422;48.286;8.484;2022-12-07T12:09:35;93926.03;;;1.23;100.00
39739;BME280;25422;48.286;8.484;2022-12-07T12:12:24;93927.31;;;1.17;100.00
39739;BME280;25422;48.286;8.484;2022-12-07T12:23:14;93917.00;;;1.17;100.00
39739;BME280;25422;48.286;8.484;2022-12-07T12:25:45;93907.38;;;1.19;100.00
39739;BME280;25422;48.286;8.484;2022-12-07T12:28:38;93905.75;;;1.07;100.00
39739;BME280;25422;48.286;8.484;2022-12-07T12:33:31;93908.34;;;1.07;100.00
39739;BME280;25422;48.286;8.484;2022-12-07T12:46:49;93890.97;;;1.31;100.00
39739;BME280;25422;48.286;8.484;2022-12-07T12:51:42;93893.91;;;1.27;100.00
39739;BME280;25422;48.286;8.484;2022-12-07T12:54:15;93888.19;;;1.12;100.00
39739;BME280;25422;48.286;8.484;2022-12-07T13:01:46;93877.56;;;1.05;100.00
39739;BME280;25422;48.286;8.484;2022-12-07T13:04:49;93880.50;;;1.00;100.00
39739;BME280;25422;48.286;8.484;2022-12-07T13:07:49;93878.13;;;1.09;100.00
39739;BME280;25422;48.286;8.484;2022-12-07T13:26:23;93872.50;;;1.15;100.00
39739;BME280;25422;48.286;8.484;2022-12-07T13:31:42;93867.00;;;1.08;100.00
39739;BME280;25422;48.286;8.484;2022-12-07T13:37:12;93861.63;;;1.11;100.00
39739;BME280;25422;48.286;8.484;2022-12-07T13:39:51;93859.38;;;1.07;100.00
39739;BME280;25422;48.286;8.484;2022-12-07T13:42:30;93858.13;;;1.01;100.00
39739;BME280;25422;48.286;8.484;2022-12-07T13:44:58;93857.31;;;1.00;100.00
39739;BME280;25422;48.286;8.484;2022-12-07T13:47:47;93864.44;;;0.97;100.00
39739;BME280;25422;48.286;8.484;2022-12-07T13:50:28;93849.47;;;1.02;100.00
39739;BME280;25422;48.286;8.484;2022-12-07T13:52:56;93852.25;;;0.99;100.00
39739;BME280;25422;48.286;8.484;2022-12-07T13:55:21;93846.75;;;1.04;100.00
39739;BME280;25422;48.286;8.484;2022-12-07T13:57:51;93846.88;;;1.02;100.00
39739;BME280;25422;48.286;8.484;2022-12-07T14:00:25;93846.38;;;1.08;100.00
39739;BME280;25422;48.286;8.484;2022-12-07T14:02:59;93836.34;;;0.94;100.00
39739;BME280;25422;48.286;8.484;2022-12-07T14:05:27;93842.69;;;0.90;100.00
39739;BME280;25422;48.286;8.484;2022-12-07T14:07:56;93853.81;;;0.79;100.00
39739;BME280;25422;48.286;8.484;2022-12-07T14:10:28;93855.91;;;0.85;100.00
39739;BME280;25422;48.286;8.484;2022-12-07T14:12:54;93857.09;;;0.81;100.00
39739;BME280;25422;48.286;8.484;2022-12-07T14:15:27;93860.94;;;0.75;100.00
39739;BME280;25422;48.286;8.484;2022-12-07T14:17:54;93856.72;;;0.74;100.00
39739;BME280;25422;48.286;8.484;2022-12-07T14:22:56;93855.81;;;0.75;100.00
39739;BME280;25422;48.286;8.484;2022-12-07T14:25:23;93855.69;;;0.77;100.00
39739;BME280;25422;48.286;8.484;2022-12-07T14:27:50;93847.25;;;0.63;100.00
39739;BME280;25422;48.286;8.484;2022-12-07T14:30:18;93850.78;;;0.51;100.00
39739;BME280;25422;48.286;8.484;2022-12-07T14:32:51;93851.94;;;0.47;100.00
39739;BME280;25422;48.286;8.484;2022-12-07T14:35:18;93847.50;;;0.49;100.00
39739;BME280;25422;48.286;8.484;2022-12-07T14:37:46;93851.00;;;0.48;100.00
39739;BME280;25422;48.286;8.484;2022-12-07T14:40:16;93849.13;;;0.39;100.00
39739;BME280;25422;48.286;8.484;2022-12-07T14:42:42;93844.69;;;0.41;100.00
39739;BME280;25422;48.286;8.484;2022-12-07T14:45:16;93846.31;;;0.42;100.00
39739;BME280;25422;48.286;8.484;2022-12-07T14:47:43;93851.94;;;0.58;100.00
39739;BME280;25422;48.286;8.484;2022-12-07T14:50:12;93845.97;;;0.46;100.00
39739;BME280;25422;48.286;8.484;2022-12-07T14:52:38;93842.47;;;0.36;100.00